Portada
METAR-TAF:

METAR-TAF

Aeroports :

Perth, Austràlia

latitud: 31-56S, longitud: 115-57E, altitud: 20 m

Observació

L'informe es va fer fa 33 minuts, a les 07:30 UTC
Vent 7 kt del Sud-Est
Temperatura 29°C
Humitat 37%
Pressió 1012 hPa
Visibilitat 10 km o més
sense núvols per sota de 1500 mi sense presència de cumulonimbus.

METAR: YPPH 180730Z 13007KT CAVOK 29/13 Q1012 NOSIG

Hora: 16:03 (08:03 UTC)

Pronòstic

L'informe es va fer fa 2 hores i 57 minuts, a les 05:06 UTC
Pronòstic vàlid del 18 a les 06 UTC al 19 a les 12 UTC
Vent 12 kt del Sud/Sud-Est
Visibilitat 10 km o més
Núvols disperses a una alçada de 4500 ft
A partir de les 18 a les 1600 UTC
Vent 12 kt del Est
Visibilitat 10 km o més
sense núvols per sota de 1500 mi sense presència de cumulonimbus.

TAF: YPPH 180506Z 1806/1912 15012KT 9999 SCT045 FM181600 10012KT CAVOK

Observacions i pronòstics meteorològics de més de 4000 aeroports (METAR i TAF).

Les estacions disponibles són els punts grocs i vermells al mapa.

Posi el ratolí al punt desitjat per veure el nom de l'estació.

Feu clic per veure les observacions i els pronòstics meteorològics.

Per canviar el mapa: feu clic els botons verds amb una creu de color negre per apropar; al botó verd amb un guió per allunyar la imatge; o en les fletxes verdes per a mapes adjacents.


METAR-TAF: